createdAt,value
2023-05-09T00:02:09.116Z,30.17
2023-05-09T00:04:38.343Z,31.13
2023-05-09T00:07:06.065Z,33.53
2023-05-09T00:09:33.755Z,34.17
2023-05-09T00:12:02.531Z,31.70
2023-05-09T00:14:30.187Z,33.53
2023-05-09T00:16:59.316Z,32.47
2023-05-09T00:19:27.078Z,31.33
2023-05-09T00:21:56.445Z,33.55
2023-05-09T00:24:24.262Z,35.37
2023-05-09T00:26:51.971Z,32.78
2023-05-09T00:29:19.595Z,34.78
2023-05-09T00:31:47.312Z,36.97
2023-05-09T00:34:15.025Z,32.00
2023-05-09T00:36:42.806Z,32.97
2023-05-09T00:39:12.507Z,35.28
2023-05-09T00:41:40.607Z,40.07
2023-05-09T00:44:08.414Z,38.83
2023-05-09T00:46:36.423Z,37.92
2023-05-09T00:49:04.496Z,36.70
2023-05-09T00:51:32.628Z,33.65
2023-05-09T00:54:00.397Z,33.35
2023-05-09T00:56:29.425Z,36.85
2023-05-09T00:58:57.140Z,34.63
2023-05-09T01:01:25.078Z,35.90
2023-05-09T01:03:53.431Z,37.97
2023-05-09T01:06:26.881Z,35.47
2023-05-09T01:09:03.652Z,33.57
2023-05-09T01:11:37.884Z,35.27
2023-05-09T01:14:13.152Z,36.97
2023-05-09T01:16:47.899Z,37.23
2023-05-09T01:19:37.666Z,36.53
2023-05-09T01:22:10.004Z,36.97
2023-05-09T01:25:23.339Z,37.53
2023-05-09T01:28:00.857Z,33.10
2023-05-09T01:30:32.127Z,33.57
2023-05-09T01:33:02.407Z,38.07
2023-05-09T01:35:33.819Z,34.53
2023-05-09T01:38:05.832Z,35.17
2023-05-09T01:40:34.970Z,36.10
2023-05-09T01:43:08.308Z,36.97
2023-05-09T01:45:39.131Z,37.73
2023-05-09T01:48:08.638Z,34.83
2023-05-09T01:50:37.039Z,35.80
2023-05-09T01:53:06.824Z,34.65
2023-05-09T01:55:37.137Z,31.80
2023-05-09T01:58:06.504Z,30.83
2023-05-09T02:00:35.244Z,32.10
2023-05-09T02:03:05.169Z,34.33
2023-05-09T02:05:33.608Z,31.70
2023-05-09T02:08:02.169Z,31.38
2023-05-09T02:10:30.362Z,31.92
2023-05-09T02:12:58.233Z,30.15
2023-05-09T02:15:26.515Z,31.65
2023-05-09T02:17:54.331Z,34.97
2023-05-09T02:20:23.489Z,31.70
2023-05-09T02:22:51.745Z,31.93
2023-05-09T02:25:31.387Z,34.03
2023-05-09T02:28:00.250Z,32.97
2023-05-09T02:30:32.230Z,34.40
2023-05-09T02:33:11.869Z,34.80
2023-05-09T02:35:42.408Z,34.40
2023-05-09T02:38:10.210Z,30.90
2023-05-09T02:40:40.286Z,34.25
2023-05-09T02:43:07.893Z,36.80
2023-05-09T02:45:35.610Z,37.40
2023-05-09T02:48:03.605Z,39.08
2023-05-09T02:50:32.281Z,38.10
2023-05-09T02:53:01.300Z,36.93
2023-05-09T02:55:28.896Z,36.23
2023-05-09T02:58:09.279Z,37.27
2023-05-09T03:00:40.920Z,35.63
2023-05-09T03:03:08.914Z,36.10
2023-05-09T03:05:36.648Z,34.40
2023-05-09T03:08:06.436Z,37.13
2023-05-09T03:10:34.198Z,35.53
2023-05-09T03:13:02.428Z,36.17
2023-05-09T03:15:30.141Z,37.25
2023-05-09T03:17:58.151Z,36.63
2023-05-09T03:20:27.375Z,37.60
2023-05-09T03:22:56.165Z,34.63
2023-05-09T03:25:26.358Z,38.33
2023-05-09T03:27:54.106Z,37.70
2023-05-09T03:30:21.756Z,35.03
2023-05-09T03:32:49.550Z,32.50
2023-05-09T03:35:17.444Z,33.58
2023-05-09T03:37:45.131Z,35.55
2023-05-09T03:40:13.343Z,35.03
2023-05-09T03:42:42.450Z,33.80
2023-05-09T03:45:11.312Z,34.63
2023-05-09T03:47:39.077Z,33.67
2023-05-09T03:50:08.184Z,32.40
2023-05-09T03:52:37.222Z,29.53
2023-05-09T03:55:05.801Z,34.50
2023-05-09T04:00:03.539Z,31.10
2023-05-09T04:02:31.576Z,31.93
2023-05-09T04:04:59.419Z,32.38
2023-05-09T04:07:28.549Z,30.23
2023-05-09T04:09:56.611Z,30.00
2023-05-09T04:12:24.479Z,32.47
2023-05-09T04:14:52.783Z,32.22
2023-05-09T04:17:21.824Z,32.75
2023-05-09T04:19:49.707Z,31.30
2023-05-09T04:22:17.462Z,30.40
2023-05-09T04:24:45.572Z,31.87
2023-05-09T04:27:13.254Z,32.03
2023-05-09T04:29:41.039Z,32.57
2023-05-09T04:32:08.883Z,32.78
2023-05-09T04:34:37.938Z,34.30
2023-05-09T04:37:05.825Z,33.00
2023-05-09T04:39:33.605Z,31.52
2023-05-09T04:42:01.292Z,29.92
2023-05-09T04:44:28.984Z,31.13
2023-05-09T04:46:58.117Z,31.43
2023-05-09T04:49:25.952Z,31.20
2023-05-09T04:51:55.099Z,30.35
2023-05-09T04:54:22.744Z,29.60
2023-05-09T04:56:50.755Z,29.17
2023-05-09T04:59:18.559Z,29.83
2023-05-09T05:01:46.349Z,30.57
2023-05-09T05:04:14.249Z,27.65
2023-05-09T05:06:42.282Z,28.33
2023-05-09T05:09:11.242Z,27.52
2023-05-09T05:11:39.483Z,28.40
2023-05-09T05:14:08.017Z,27.10
2023-05-09T05:16:35.783Z,27.77
2023-05-09T05:19:03.498Z,26.45
2023-05-09T05:21:31.177Z,25.37
2023-05-09T05:23:58.885Z,24.47
2023-05-09T05:26:29.011Z,25.83
2023-05-09T05:28:57.190Z,25.00
2023-05-09T05:31:25.070Z,25.35
2023-05-09T05:33:52.815Z,24.48
2023-05-09T05:36:20.574Z,24.57
2023-05-09T05:38:48.144Z,25.00
2023-05-09T05:41:15.854Z,24.23
2023-05-09T05:43:45.005Z,22.07
2023-05-09T05:46:12.620Z,21.93
2023-05-09T05:48:40.278Z,22.33
2023-05-09T05:51:07.929Z,23.67
2023-05-09T05:53:35.708Z,21.93
2023-05-09T05:56:03.576Z,21.42
2023-05-09T05:58:31.609Z,22.20
2023-05-09T06:01:00.802Z,21.33
2023-05-09T06:03:28.619Z,20.40
2023-05-09T06:05:56.962Z,20.90
2023-05-09T06:08:24.624Z,20.05
2023-05-09T06:10:52.324Z,20.10
2023-05-09T06:13:19.998Z,19.43
2023-05-09T06:15:47.885Z,20.43
2023-05-09T06:18:16.972Z,19.58
2023-05-09T06:20:44.672Z,21.00
2023-05-09T06:23:12.402Z,20.20
2023-05-09T06:25:40.035Z,22.23
2023-05-09T06:28:07.664Z,20.30
2023-05-09T06:30:36.437Z,20.17
2023-05-09T06:33:04.197Z,20.73
2023-05-09T06:35:33.290Z,21.60
2023-05-09T06:38:01.078Z,20.80
2023-05-09T06:40:28.765Z,22.35
2023-05-09T06:42:56.479Z,21.47
2023-05-09T06:45:24.297Z,21.40
2023-05-09T06:47:52.007Z,22.17
2023-05-09T06:50:19.740Z,22.93
2023-05-09T06:52:48.738Z,22.10
2023-05-09T06:55:16.696Z,22.27
2023-05-09T06:57:44.669Z,22.52
2023-05-09T07:00:13.429Z,22.48
2023-05-09T07:02:42.227Z,23.73
2023-05-09T07:05:11.031Z,23.00
2023-05-09T07:10:12.378Z,22.77
2023-05-09T07:12:41.145Z,22.57
2023-05-09T07:15:10.184Z,24.27
2023-05-09T07:17:37.904Z,23.03
2023-05-09T07:20:07.118Z,24.80
2023-05-09T07:22:37.205Z,24.13
2023-05-09T07:25:09.187Z,25.80
2023-05-09T07:27:37.004Z,24.33
2023-05-09T07:30:05.055Z,25.98
2023-05-09T07:32:32.789Z,23.65
2023-05-09T07:35:00.641Z,22.47
2023-05-09T07:37:28.481Z,24.83
2023-05-09T07:39:56.347Z,25.70
2023-05-09T07:42:25.431Z,24.33
2023-05-09T07:44:53.322Z,23.03
2023-05-09T07:47:21.188Z,24.13
2023-05-09T07:49:48.889Z,24.33
2023-05-09T07:52:17.291Z,22.70
2023-05-09T07:54:45.357Z,23.30
2023-05-09T07:57:13.053Z,23.50
2023-05-09T07:59:42.423Z,22.27
2023-05-09T08:02:10.210Z,22.97
2023-05-09T08:04:41.177Z,22.70
2023-05-09T08:07:09.220Z,23.30
2023-05-09T08:09:37.517Z,22.57
2023-05-09T08:12:06.063Z,21.33
2023-05-09T08:14:33.798Z,21.38
2023-05-09T08:17:02.928Z,21.17
2023-05-09T08:19:30.610Z,22.13
2023-05-09T08:21:58.399Z,20.60
2023-05-09T08:24:26.193Z,19.65
2023-05-09T08:26:53.872Z,22.42
2023-05-09T08:29:21.658Z,21.07
2023-05-09T08:31:49.481Z,19.63
2023-05-09T08:34:18.821Z,20.88
2023-05-09T08:36:47.025Z,20.37
2023-05-09T08:39:14.754Z,19.88
2023-05-09T08:41:43.182Z,19.63
2023-05-09T08:44:11.384Z,18.63
2023-05-09T08:46:44.172Z,18.70
2023-05-09T08:49:12.137Z,17.63
2023-05-09T08:51:41.795Z,17.45
2023-05-09T08:54:09.661Z,17.03
2023-05-09T08:56:37.639Z,18.13
2023-05-09T08:59:06.526Z,15.70
2023-05-09T09:01:35.962Z,16.80
2023-05-09T09:04:06.344Z,14.67
2023-05-09T09:06:34.827Z,15.10
2023-05-09T09:09:07.066Z,16.05
2023-05-09T09:11:36.343Z,13.63
2023-05-09T09:14:11.584Z,15.87
2023-05-09T09:16:41.042Z,14.90
2023-05-09T09:19:12.683Z,15.17
2023-05-09T09:21:42.772Z,15.93
2023-05-09T09:24:14.852Z,13.87
2023-05-09T09:26:50.183Z,14.93
2023-05-09T09:29:19.464Z,14.10
2023-05-09T09:31:48.635Z,14.83
2023-05-09T09:34:24.288Z,13.13
2023-05-09T09:36:52.228Z,14.00
2023-05-09T09:39:22.079Z,14.80
2023-05-09T09:41:50.062Z,14.73
2023-05-09T09:44:18.966Z,14.90
2023-05-09T09:46:48.369Z,14.20
2023-05-09T09:49:17.782Z,15.90
2023-05-09T09:51:45.692Z,15.50
2023-05-09T09:54:13.894Z,14.63
2023-05-09T09:56:47.508Z,15.38
2023-05-09T09:59:17.163Z,15.07
2023-05-09T10:01:59.051Z,15.40
2023-05-09T10:04:28.957Z,14.90
2023-05-09T10:06:58.029Z,15.07
2023-05-09T10:09:27.057Z,14.40
2023-05-09T10:11:57.301Z,13.40
2023-05-09T10:14:26.280Z,14.50
2023-05-09T10:16:56.624Z,14.00
2023-05-09T10:19:26.406Z,15.70
2023-05-09T10:21:56.381Z,15.50
2023-05-09T10:24:29.468Z,14.23
2023-05-09T10:27:05.302Z,13.90
2023-05-09T10:29:37.444Z,13.50
2023-05-09T10:32:14.436Z,14.00
2023-05-09T10:34:48.520Z,14.00
2023-05-09T10:37:17.188Z,13.17
2023-05-09T10:42:14.879Z,12.00
2023-05-09T10:44:44.510Z,12.53
2023-05-09T10:47:13.228Z,12.47
2023-05-09T10:52:09.066Z,11.95
2023-05-09T10:54:37.999Z,11.60
2023-05-09T10:57:07.068Z,11.40
2023-05-09T10:59:40.284Z,12.13
2023-05-09T11:02:13.778Z,11.87
2023-05-09T11:04:41.818Z,10.70
2023-05-09T11:07:25.471Z,12.82
2023-05-09T11:09:54.126Z,11.30
2023-05-09T11:14:56.070Z,12.53
2023-05-09T11:17:32.236Z,11.40
2023-05-09T11:20:03.090Z,12.27
2023-05-09T11:22:32.929Z,11.67
2023-05-09T11:25:04.702Z,12.77
2023-05-09T11:27:40.115Z,13.90
2023-05-09T11:30:11.692Z,12.63
2023-05-09T11:32:44.777Z,14.40
2023-05-09T11:35:15.745Z,11.80
2023-05-09T11:37:49.064Z,13.53
2023-05-09T11:40:19.120Z,13.50
2023-05-09T11:42:48.595Z,13.17
2023-05-09T11:45:18.404Z,12.43
2023-05-09T11:47:47.150Z,11.47
2023-05-09T11:52:43.744Z,12.50
2023-05-09T11:55:14.254Z,12.95
2023-05-09T11:57:43.255Z,12.97
2023-05-09T12:05:10.813Z,11.67
2023-05-09T12:07:39.561Z,11.90
2023-05-09T12:10:09.023Z,12.90
2023-05-09T12:12:37.327Z,13.53
2023-05-09T12:15:08.129Z,13.07
2023-05-09T12:17:36.276Z,11.40
2023-05-09T12:20:06.014Z,13.55
2023-05-09T12:22:34.220Z,13.80
2023-05-09T12:25:03.970Z,13.93
2023-05-09T12:27:33.122Z,12.93
2023-05-09T12:30:01.857Z,14.53
2023-05-09T12:35:01.510Z,14.50
2023-05-09T12:37:33.267Z,13.02
2023-05-09T12:40:06.452Z,13.23
2023-05-09T12:42:35.230Z,13.73
2023-05-09T12:45:03.805Z,12.87
2023-05-09T12:47:32.526Z,13.05
2023-05-09T12:50:00.448Z,11.47
2023-05-09T12:52:41.752Z,13.23
2023-05-09T12:55:20.651Z,13.03
2023-05-09T12:57:59.663Z,12.47
2023-05-09T13:00:27.779Z,12.80
2023-05-09T13:02:55.689Z,13.10
2023-05-09T13:05:24.452Z,12.48
2023-05-09T13:10:25.216Z,13.20
2023-05-09T13:12:53.466Z,14.07
2023-05-09T13:15:23.056Z,12.80
2023-05-09T13:17:52.319Z,12.40
2023-05-09T13:20:20.928Z,12.70
2023-05-09T13:22:48.710Z,12.30
2023-05-09T13:25:17.985Z,10.82
2023-05-09T13:27:46.023Z,12.53
2023-05-09T13:30:15.991Z,12.65
2023-05-09T13:32:44.236Z,12.20
2023-05-09T13:35:12.243Z,11.07
2023-05-09T13:37:40.199Z,10.32
2023-05-09T13:40:09.192Z,11.50
2023-05-09T13:42:38.257Z,10.83
2023-05-09T13:45:07.010Z,11.67
2023-05-09T13:47:36.606Z,11.57
2023-05-09T13:50:05.493Z,9.65
2023-05-09T13:52:33.270Z,10.55
2023-05-09T13:55:01.010Z,10.68
2023-05-09T13:57:28.911Z,11.10
2023-05-09T13:59:58.154Z,12.02
2023-05-09T14:02:25.972Z,9.20
2023-05-09T14:04:54.570Z,10.10
2023-05-09T14:07:22.390Z,8.43
2023-05-09T14:09:54.011Z,7.68
2023-05-09T14:12:26.780Z,8.17
2023-05-09T14:14:54.574Z,9.00
2023-05-09T14:17:23.991Z,8.02
2023-05-09T14:19:51.737Z,7.20
2023-05-09T14:22:19.460Z,7.32
2023-05-09T14:24:47.334Z,7.88
2023-05-09T14:27:15.134Z,7.63
2023-05-09T14:29:43.417Z,7.43
2023-05-09T14:32:12.724Z,8.30
2023-05-09T14:34:42.019Z,7.73
2023-05-09T14:37:13.762Z,9.02
2023-05-09T14:39:42.127Z,9.27
2023-05-09T14:42:11.549Z,8.45
2023-05-09T14:44:39.698Z,9.10
2023-05-09T14:47:09.135Z,9.90
2023-05-09T14:49:38.641Z,9.00
2023-05-09T14:52:08.015Z,8.63
2023-05-09T14:54:36.495Z,7.97
2023-05-09T14:57:07.075Z,7.53
2023-05-09T14:59:37.058Z,7.93
2023-05-09T15:02:05.523Z,8.67
2023-05-09T15:04:33.302Z,9.80
2023-05-09T15:07:01.274Z,9.30
2023-05-09T15:09:30.461Z,8.35
2023-05-09T15:11:58.689Z,9.70
2023-05-09T15:14:26.712Z,9.27
2023-05-09T15:16:55.443Z,10.98
2023-05-09T15:19:23.380Z,10.27
2023-05-09T15:21:51.652Z,11.48
2023-05-09T15:24:19.365Z,10.57
2023-05-09T15:26:48.486Z,9.77
2023-05-09T15:29:16.391Z,9.53
2023-05-09T15:31:44.364Z,9.02
2023-05-09T15:34:12.821Z,9.27
2023-05-09T15:36:40.777Z,9.18
2023-05-09T15:39:08.645Z,11.90
2023-05-09T15:41:36.571Z,10.82
2023-05-09T15:44:07.320Z,12.02
2023-05-09T15:46:35.398Z,11.23
2023-05-09T15:49:03.351Z,11.85
2023-05-09T15:51:31.782Z,10.27
2023-05-09T15:53:59.687Z,10.63
2023-05-09T15:56:27.420Z,11.35
2023-05-09T15:58:55.189Z,12.15
2023-05-09T16:01:24.401Z,11.40
2023-05-09T16:03:52.484Z,13.00
2023-05-09T16:06:20.491Z,12.00
2023-05-09T16:08:48.795Z,9.70
2023-05-09T16:11:16.580Z,11.55
2023-05-09T16:13:46.578Z,12.60
2023-05-09T16:16:14.441Z,11.77
2023-05-09T16:18:43.777Z,11.18
2023-05-09T16:21:12.264Z,11.03
2023-05-09T16:26:08.437Z,11.23
2023-05-09T16:28:36.261Z,11.13
2023-05-09T16:31:05.055Z,9.07
2023-05-09T16:33:33.616Z,9.50
2023-05-09T16:36:02.725Z,9.93
2023-05-09T16:38:30.605Z,10.73
2023-05-09T16:40:58.523Z,9.35
2023-05-09T16:43:26.350Z,10.13
2023-05-09T16:45:54.095Z,10.93
2023-05-09T16:48:22.040Z,9.57
2023-05-09T16:50:53.598Z,8.82
2023-05-09T16:53:23.662Z,10.50
2023-05-09T16:55:53.910Z,8.57
2023-05-09T16:58:21.909Z,9.97
2023-05-09T17:00:51.389Z,10.32
2023-05-09T17:03:19.202Z,11.10
2023-05-09T17:05:46.988Z,11.65
2023-05-09T17:08:14.839Z,10.43
2023-05-09T17:10:44.366Z,10.40
2023-05-09T17:13:12.444Z,9.57
2023-05-09T17:15:40.495Z,9.75
2023-05-09T17:18:08.263Z,11.15
2023-05-09T17:20:36.107Z,11.48
2023-05-09T17:23:04.164Z,11.57
2023-05-09T17:25:31.899Z,11.77
2023-05-09T17:28:01.071Z,11.67
2023-05-09T17:30:29.261Z,10.67
2023-05-09T17:32:57.040Z,9.25
2023-05-09T17:35:25.767Z,10.30
2023-05-09T17:40:21.204Z,8.20
2023-05-09T17:42:49.041Z,8.85
2023-05-09T17:45:18.290Z,9.48
2023-05-09T17:47:46.041Z,7.47
2023-05-09T17:50:14.537Z,8.40
2023-05-09T17:55:10.981Z,7.90
2023-05-09T18:00:08.519Z,7.30
2023-05-09T18:02:37.615Z,8.53
2023-05-09T18:05:06.049Z,10.17
2023-05-09T18:07:33.989Z,11.27
2023-05-09T18:10:01.708Z,9.35
2023-05-09T18:12:31.093Z,10.40
2023-05-09T18:14:58.849Z,10.17
2023-05-09T18:17:26.622Z,9.23
2023-05-09T18:19:55.778Z,7.32
2023-05-09T18:22:24.146Z,8.67
2023-05-09T18:24:53.356Z,7.55
2023-05-09T18:27:21.480Z,7.50
2023-05-09T18:29:49.370Z,7.30
2023-05-09T18:32:17.686Z,5.88
2023-05-09T18:34:48.312Z,5.22
2023-05-09T18:37:17.765Z,5.13
2023-05-09T18:39:45.796Z,5.63
2023-05-09T18:42:15.936Z,4.35
2023-05-09T18:44:44.318Z,4.23
2023-05-09T18:47:12.389Z,4.25
2023-05-09T18:49:40.534Z,5.03
2023-05-09T18:52:08.226Z,4.82
2023-05-09T18:54:38.246Z,4.10
2023-05-09T18:57:06.226Z,4.13
2023-05-09T18:59:33.936Z,4.70
2023-05-09T19:02:01.702Z,5.67
2023-05-09T19:04:29.469Z,5.13
2023-05-09T19:06:59.234Z,5.40
2023-05-09T19:09:26.974Z,5.50
2023-05-09T19:11:56.571Z,4.47
2023-05-09T19:14:24.375Z,4.80
2023-05-09T19:16:52.161Z,4.90
2023-05-09T19:19:19.904Z,5.05
2023-05-09T19:21:50.144Z,4.60
2023-05-09T19:24:18.035Z,5.87
2023-05-09T19:26:45.759Z,4.83
2023-05-09T19:29:14.794Z,4.32
2023-05-09T19:31:42.546Z,4.43
2023-05-09T19:34:10.195Z,3.80
2023-05-09T19:36:37.910Z,3.23
2023-05-09T19:39:06.241Z,3.87
2023-05-09T19:41:33.867Z,3.53
2023-05-09T19:44:01.758Z,4.20
2023-05-09T19:46:30.900Z,4.60
2023-05-09T19:48:58.830Z,4.53
2023-05-09T19:51:26.828Z,4.70
2023-05-09T19:53:54.560Z,5.15
2023-05-09T19:56:23.177Z,5.10
2023-05-09T20:01:19.373Z,5.72
2023-05-09T20:06:18.924Z,6.90
2023-05-09T20:08:47.046Z,7.88
2023-05-09T20:11:14.953Z,7.32
2023-05-09T20:13:42.876Z,7.82
2023-05-09T20:16:10.923Z,6.57
2023-05-09T20:18:39.122Z,7.05
2023-05-09T20:21:09.733Z,6.85
2023-05-09T20:23:38.145Z,6.10
2023-05-09T20:26:06.314Z,6.30
2023-05-09T20:28:34.205Z,6.05
2023-05-09T20:31:02.306Z,6.20
2023-05-09T20:33:30.344Z,7.25
2023-05-09T20:35:58.142Z,7.55
2023-05-09T20:38:27.430Z,7.50
2023-05-09T20:40:55.380Z,7.50
2023-05-09T20:43:23.525Z,8.43
2023-05-09T20:45:51.766Z,8.10
2023-05-09T20:48:22.499Z,8.40
2023-05-09T20:50:50.495Z,8.50
2023-05-09T20:53:18.432Z,9.38
2023-05-09T20:55:49.629Z,10.05
2023-05-09T20:58:18.567Z,10.17
2023-05-09T21:00:47.153Z,10.48
2023-05-09T21:05:43.181Z,11.90
2023-05-09T21:08:11.154Z,11.52
2023-05-09T21:10:39.040Z,13.70
2023-05-09T21:13:08.691Z,14.02
2023-05-09T21:15:41.194Z,13.63
2023-05-09T21:18:09.238Z,13.53
2023-05-09T21:20:37.282Z,13.50
2023-05-09T21:23:05.210Z,14.95
2023-05-09T21:25:33.097Z,15.02
2023-05-09T21:28:01.278Z,17.35
2023-05-09T21:30:30.608Z,17.52
2023-05-09T21:32:58.658Z,16.80
2023-05-09T21:35:26.710Z,18.15
2023-05-09T21:37:54.665Z,20.33
2023-05-09T21:40:22.655Z,19.67
2023-05-09T21:42:50.559Z,18.48
2023-05-09T21:45:19.217Z,19.90
2023-05-09T21:47:48.861Z,20.58
2023-05-09T21:50:17.149Z,21.00
2023-05-09T21:52:45.370Z,20.48
2023-05-09T21:55:13.337Z,20.40
2023-05-09T21:57:41.204Z,20.98
2023-05-09T22:00:14.384Z,22.08
2023-05-09T22:02:42.945Z,24.63
2023-05-09T22:05:13.051Z,25.83
2023-05-09T22:07:40.737Z,23.77
2023-05-09T22:10:09.484Z,25.27
2023-05-09T22:15:05.516Z,24.45
2023-05-09T22:17:33.784Z,25.83
2023-05-09T22:20:01.532Z,25.63
2023-05-09T22:22:31.436Z,27.73
2023-05-09T22:24:59.213Z,27.10
2023-05-09T22:27:26.975Z,26.73
2023-05-09T22:29:55.441Z,27.67
2023-05-09T22:32:23.063Z,25.48
2023-05-09T22:34:50.767Z,28.87
2023-05-09T22:37:18.483Z,30.53
2023-05-09T22:40:24.234Z,28.50
2023-05-09T22:47:04.408Z,27.00
2023-05-09T22:49:35.551Z,30.63
2023-05-09T22:52:03.596Z,26.93
2023-05-09T22:54:31.441Z,27.65
2023-05-09T22:57:00.491Z,30.08
2023-05-09T22:59:28.182Z,32.33
2023-05-09T23:01:56.029Z,30.20
2023-05-09T23:04:23.773Z,35.38
2023-05-09T23:06:51.576Z,28.67
2023-05-09T23:09:19.401Z,27.38
2023-05-09T23:11:47.184Z,29.08
2023-05-09T23:14:43.813Z,25.95
2023-05-09T23:17:11.708Z,29.50
2023-05-09T23:19:44.055Z,29.70
2023-05-09T23:22:21.270Z,27.67
2023-05-09T23:25:43.348Z,28.50
2023-05-09T23:28:11.133Z,29.20
2023-05-09T23:30:40.152Z,27.92
2023-05-09T23:33:07.820Z,29.57
2023-05-09T23:35:35.964Z,27.57
2023-05-09T23:38:04.604Z,29.83
2023-05-09T23:42:59.832Z,26.63
2023-05-09T23:45:27.632Z,30.43
2023-05-09T23:47:57.175Z,32.42
2023-05-09T23:50:24.904Z,28.80
2023-05-09T23:52:52.574Z,28.43
2023-05-09T23:55:20.436Z,28.53
2023-05-09T23:57:48.659Z,26.63
